Terminal Aerodrome Forecast
Issued by NWS

Home | Current Version | Previous Version | Text Only | Print | Product List | Glossary On
Versions: 1 2 3 4 5 6 7 8 9 10 11 12 13 14 15 16 17 18 19 20
000
FTUS42 KMHX 270500
TAFISO
TAF
KISO 270536Z 2706/2806 VRB03KT 3SM BR SCT015 BKN050
     FM271400 27010G17KT P6SM SCT025 BKN050
     FM272300 32006KT P6SM SCT050
      AMD LTD TO CLD VIS AND WIND=

USA.gov is the U.S. government's official web portal to all federal, state and local government web resources and services.